sensor_id;sensor_type;location;lat;lon;timestamp;P1;durP1;ratioP1;P2;durP2;ratioP2
71814;SDS011;59659;41.520;23.794;2023-07-30T00:00:15;4.33;;;2.33;;
71814;SDS011;59659;41.520;23.794;2023-07-30T00:01:26;3.43;;;2.20;;
71814;SDS011;59659;41.520;23.794;2023-07-30T00:02:38;4.83;;;2.40;;
71814;SDS011;59659;41.520;23.794;2023-07-30T00:03:49;4.60;;;2.50;;
71814;SDS011;59659;41.520;23.794;2023-07-30T00:05:01;4.17;;;2.30;;
71814;SDS011;59659;41.520;23.794;2023-07-30T00:06:13;3.97;;;2.80;;
71814;SDS011;59659;41.520;23.794;2023-07-30T00:07:24;3.70;;;2.37;;
71814;SDS011;59659;41.520;23.794;2023-07-30T00:08:36;5.17;;;2.90;;
71814;SDS011;59659;41.520;23.794;2023-07-30T00:09:47;8.90;;;2.50;;
71814;SDS011;59659;41.520;23.794;2023-07-30T00:10:59;4.17;;;2.67;;
71814;SDS011;59659;41.520;23.794;2023-07-30T00:12:10;3.67;;;2.43;;
71814;SDS011;59659;41.520;23.794;2023-07-30T00:13:22;4.57;;;2.37;;
71814;SDS011;59659;41.520;23.794;2023-07-30T00:14:34;3.93;;;2.67;;
71814;SDS011;59659;41.520;23.794;2023-07-30T00:15:46;3.83;;;2.33;;
71814;SDS011;59659;41.520;23.794;2023-07-30T00:16:58;4.03;;;2.60;;
71814;SDS011;59659;41.520;23.794;2023-07-30T00:18:09;4.20;;;2.30;;
71814;SDS011;59659;41.520;23.794;2023-07-30T00:19:21;2.80;;;2.47;;
71814;SDS011;59659;41.520;23.794;2023-07-30T00:20:35;4.03;;;2.27;;
71814;SDS011;59659;41.520;23.794;2023-07-30T00:21:47;3.03;;;2.43;;
71814;SDS011;59659;41.520;23.794;2023-07-30T00:22:59;3.70;;;2.63;;
71814;SDS011;59659;41.520;23.794;2023-07-30T00:24:10;3.30;;;2.37;;
71814;SDS011;59659;41.520;23.794;2023-07-30T00:25:22;3.93;;;2.47;;
71814;SDS011;59659;41.520;23.794;2023-07-30T00:26:33;3.87;;;2.50;;
71814;SDS011;59659;41.520;23.794;2023-07-30T00:27:45;4.20;;;2.30;;
71814;SDS011;59659;41.520;23.794;2023-07-30T00:28:57;4.90;;;2.97;;
71814;SDS011;59659;41.520;23.794;2023-07-30T00:30:09;3.90;;;2.70;;
71814;SDS011;59659;41.520;23.794;2023-07-30T00:31:20;6.23;;;2.67;;
71814;SDS011;59659;41.520;23.794;2023-07-30T00:32:32;3.87;;;2.63;;
71814;SDS011;59659;41.520;23.794;2023-07-30T00:33:44;3.60;;;2.40;;
71814;SDS011;59659;41.520;23.794;2023-07-30T00:34:55;4.33;;;2.57;;
71814;SDS011;59659;41.520;23.794;2023-07-30T00:36:07;3.50;;;2.40;;
71814;SDS011;59659;41.520;23.794;2023-07-30T00:37:18;3.30;;;2.57;;
71814;SDS011;59659;41.520;23.794;2023-07-30T00:38:30;6.77;;;2.13;;
71814;SDS011;59659;41.520;23.794;2023-07-30T00:39:41;4.03;;;2.17;;
71814;SDS011;59659;41.520;23.794;2023-07-30T00:40:53;4.77;;;2.50;;
71814;SDS011;59659;41.520;23.794;2023-07-30T00:42:05;3.57;;;2.80;;
71814;SDS011;59659;41.520;23.794;2023-07-30T00:43:16;3.37;;;2.30;;
71814;SDS011;59659;41.520;23.794;2023-07-30T00:44:28;2.97;;;2.10;;
71814;SDS011;59659;41.520;23.794;2023-07-30T00:45:40;5.13;;;2.70;;
71814;SDS011;59659;41.520;23.794;2023-07-30T00:46:52;3.80;;;2.60;;
71814;SDS011;59659;41.520;23.794;2023-07-30T00:48:04;4.03;;;2.40;;
71814;SDS011;59659;41.520;23.794;2023-07-30T00:49:15;5.43;;;2.83;;
71814;SDS011;59659;41.520;23.794;2023-07-30T00:50:27;3.50;;;2.73;;
71814;SDS011;59659;41.520;23.794;2023-07-30T00:51:39;3.97;;;2.60;;
71814;SDS011;59659;41.520;23.794;2023-07-30T00:52:52;3.53;;;2.00;;
71814;SDS011;59659;41.520;23.794;2023-07-30T00:54:03;4.57;;;2.77;;
71814;SDS011;59659;41.520;23.794;2023-07-30T00:55:15;3.90;;;2.30;;
71814;SDS011;59659;41.520;23.794;2023-07-30T00:56:27;5.43;;;2.60;;
71814;SDS011;59659;41.520;23.794;2023-07-30T00:57:38;4.83;;;2.50;;
71814;SDS011;59659;41.520;23.794;2023-07-30T00:58:50;3.73;;;2.73;;
71814;SDS011;59659;41.520;23.794;2023-07-30T01:00:02;3.97;;;2.50;;
71814;SDS011;59659;41.520;23.794;2023-07-30T01:01:16;3.17;;;2.37;;
71814;SDS011;59659;41.520;23.794;2023-07-30T01:02:28;3.80;;;2.60;;
71814;SDS011;59659;41.520;23.794;2023-07-30T01:03:39;3.73;;;2.30;;
71814;SDS011;59659;41.520;23.794;2023-07-30T01:04:51;3.43;;;2.10;;
71814;SDS011;59659;41.520;23.794;2023-07-30T01:06:03;3.80;;;2.27;;
71814;SDS011;59659;41.520;23.794;2023-07-30T01:07:14;5.80;;;2.90;;
71814;SDS011;59659;41.520;23.794;2023-07-30T01:08:26;4.17;;;2.83;;
71814;SDS011;59659;41.520;23.794;2023-07-30T01:09:38;4.23;;;2.90;;
71814;SDS011;59659;41.520;23.794;2023-07-30T01:10:49;4.57;;;2.87;;
71814;SDS011;59659;41.520;23.794;2023-07-30T01:12:01;4.03;;;2.43;;
71814;SDS011;59659;41.520;23.794;2023-07-30T01:13:13;5.53;;;2.90;;
71814;SDS011;59659;41.520;23.794;2023-07-30T01:14:26;4.33;;;2.60;;
71814;SDS011;59659;41.520;23.794;2023-07-30T01:15:38;5.40;;;2.80;;
71814;SDS011;59659;41.520;23.794;2023-07-30T01:16:50;3.90;;;2.53;;
71814;SDS011;59659;41.520;23.794;2023-07-30T01:18:02;3.40;;;2.13;;
71814;SDS011;59659;41.520;23.794;2023-07-30T01:19:13;3.67;;;2.70;;
71814;SDS011;59659;41.520;23.794;2023-07-30T01:20:29;3.30;;;2.10;;
71814;SDS011;59659;41.520;23.794;2023-07-30T01:21:40;5.20;;;2.50;;
71814;SDS011;59659;41.520;23.794;2023-07-30T01:22:52;3.13;;;2.20;;
71814;SDS011;59659;41.520;23.794;2023-07-30T01:24:03;4.70;;;2.57;;
71814;SDS011;59659;41.520;23.794;2023-07-30T01:25:16;4.90;;;2.47;;
71814;SDS011;59659;41.520;23.794;2023-07-30T01:26:30;6.07;;;2.47;;
71814;SDS011;59659;41.520;23.794;2023-07-30T01:27:44;4.10;;;2.47;;
71814;SDS011;59659;41.520;23.794;2023-07-30T01:28:59;4.27;;;2.30;;
71814;SDS011;59659;41.520;23.794;2023-07-30T01:30:18;4.20;;;2.83;;
71814;SDS011;59659;41.520;23.794;2023-07-30T01:31:32;3.57;;;2.30;;
71814;SDS011;59659;41.520;23.794;2023-07-30T01:32:46;5.83;;;2.07;;
71814;SDS011;59659;41.520;23.794;2023-07-30T01:33:58;3.97;;;2.80;;
71814;SDS011;59659;41.520;23.794;2023-07-30T01:35:10;4.90;;;2.50;;
71814;SDS011;59659;41.520;23.794;2023-07-30T01:36:24;4.17;;;2.50;;
71814;SDS011;59659;41.520;23.794;2023-07-30T01:37:37;3.57;;;2.50;;
71814;SDS011;59659;41.520;23.794;2023-07-30T01:38:50;3.60;;;2.80;;
71814;SDS011;59659;41.520;23.794;2023-07-30T01:40:02;6.27;;;2.60;;
71814;SDS011;59659;41.520;23.794;2023-07-30T01:41:14;4.17;;;2.20;;
71814;SDS011;59659;41.520;23.794;2023-07-30T01:42:29;4.57;;;2.67;;
71814;SDS011;59659;41.520;23.794;2023-07-30T01:43:40;3.40;;;2.33;;
71814;SDS011;59659;41.520;23.794;2023-07-30T01:44:52;4.10;;;2.23;;
71814;SDS011;59659;41.520;23.794;2023-07-30T01:46:04;3.90;;;2.27;;
71814;SDS011;59659;41.520;23.794;2023-07-30T01:47:15;4.33;;;2.90;;
71814;SDS011;59659;41.520;23.794;2023-07-30T01:48:27;4.13;;;2.70;;
71814;SDS011;59659;41.520;23.794;2023-07-30T01:49:38;4.93;;;2.77;;
71814;SDS011;59659;41.520;23.794;2023-07-30T01:50:50;6.30;;;2.57;;
71814;SDS011;59659;41.520;23.794;2023-07-30T01:52:01;3.57;;;2.57;;
71814;SDS011;59659;41.520;23.794;2023-07-30T01:53:13;4.27;;;2.83;;
71814;SDS011;59659;41.520;23.794;2023-07-30T01:54:24;4.03;;;2.03;;
71814;SDS011;59659;41.520;23.794;2023-07-30T01:55:36;3.43;;;2.30;;
71814;SDS011;59659;41.520;23.794;2023-07-30T01:56:48;5.77;;;2.33;;
71814;SDS011;59659;41.520;23.794;2023-07-30T01:57:59;5.00;;;2.73;;
71814;SDS011;59659;41.520;23.794;2023-07-30T01:59:11;2.90;;;2.00;;
71814;SDS011;59659;41.520;23.794;2023-07-30T02:00:22;4.67;;;2.20;;
71814;SDS011;59659;41.520;23.794;2023-07-30T02:01:34;5.13;;;3.10;;
71814;SDS011;59659;41.520;23.794;2023-07-30T02:02:45;4.77;;;3.30;;
71814;SDS011;59659;41.520;23.794;2023-07-30T02:03:57;5.80;;;2.43;;
71814;SDS011;59659;41.520;23.794;2023-07-30T02:05:09;4.53;;;3.17;;
71814;SDS011;59659;41.520;23.794;2023-07-30T02:06:20;4.67;;;3.03;;
71814;SDS011;59659;41.520;23.794;2023-07-30T02:07:32;3.03;;;2.20;;
71814;SDS011;59659;41.520;23.794;2023-07-30T02:08:43;4.00;;;2.50;;
71814;SDS011;59659;41.520;23.794;2023-07-30T02:09:55;4.10;;;2.27;;
71814;SDS011;59659;41.520;23.794;2023-07-30T02:11:07;4.33;;;2.53;;
71814;SDS011;59659;41.520;23.794;2023-07-30T02:12:18;3.67;;;2.50;;
71814;SDS011;59659;41.520;23.794;2023-07-30T02:13:30;4.37;;;2.63;;
71814;SDS011;59659;41.520;23.794;2023-07-30T02:14:41;3.17;;;2.37;;
71814;SDS011;59659;41.520;23.794;2023-07-30T02:15:52;3.80;;;2.43;;
71814;SDS011;59659;41.520;23.794;2023-07-30T02:17:04;3.27;;;2.30;;
71814;SDS011;59659;41.520;23.794;2023-07-30T02:18:16;4.27;;;2.30;;
71814;SDS011;59659;41.520;23.794;2023-07-30T02:19:27;3.83;;;2.50;;
71814;SDS011;59659;41.520;23.794;2023-07-30T02:20:39;4.73;;;2.40;;
71814;SDS011;59659;41.520;23.794;2023-07-30T02:21:50;3.50;;;2.50;;
71814;SDS011;59659;41.520;23.794;2023-07-30T02:23:02;4.50;;;2.70;;
71814;SDS011;59659;41.520;23.794;2023-07-30T02:24:13;5.07;;;2.67;;
71814;SDS011;59659;41.520;23.794;2023-07-30T02:25:25;3.70;;;2.27;;
71814;SDS011;59659;41.520;23.794;2023-07-30T02:26:36;4.13;;;2.70;;
71814;SDS011;59659;41.520;23.794;2023-07-30T02:27:48;3.50;;;2.63;;
71814;SDS011;59659;41.520;23.794;2023-07-30T02:29:00;3.70;;;2.30;;
71814;SDS011;59659;41.520;23.794;2023-07-30T02:30:11;4.10;;;2.43;;
71814;SDS011;59659;41.520;23.794;2023-07-30T02:31:23;6.43;;;2.53;;
71814;SDS011;59659;41.520;23.794;2023-07-30T02:32:34;4.20;;;2.63;;
71814;SDS011;59659;41.520;23.794;2023-07-30T02:33:46;4.60;;;3.03;;
71814;SDS011;59659;41.520;23.794;2023-07-30T02:34:57;9.03;;;2.77;;
71814;SDS011;59659;41.520;23.794;2023-07-30T02:36:09;5.13;;;2.40;;
71814;SDS011;59659;41.520;23.794;2023-07-30T02:37:20;4.03;;;2.60;;
71814;SDS011;59659;41.520;23.794;2023-07-30T02:38:32;5.80;;;2.77;;
71814;SDS011;59659;41.520;23.794;2023-07-30T02:39:44;4.73;;;2.90;;
71814;SDS011;59659;41.520;23.794;2023-07-30T02:40:55;4.73;;;3.03;;
71814;SDS011;59659;41.520;23.794;2023-07-30T02:42:07;3.20;;;2.20;;
71814;SDS011;59659;41.520;23.794;2023-07-30T02:43:18;6.23;;;2.90;;
71814;SDS011;59659;41.520;23.794;2023-07-30T02:44:30;4.03;;;2.53;;
71814;SDS011;59659;41.520;23.794;2023-07-30T02:45:41;7.07;;;2.70;;
71814;SDS011;59659;41.520;23.794;2023-07-30T02:46:53;5.53;;;3.00;;
71814;SDS011;59659;41.520;23.794;2023-07-30T02:48:04;4.03;;;2.67;;
71814;SDS011;59659;41.520;23.794;2023-07-30T02:49:16;4.13;;;2.53;;
71814;SDS011;59659;41.520;23.794;2023-07-30T02:50:28;4.60;;;2.70;;
71814;SDS011;59659;41.520;23.794;2023-07-30T02:51:39;4.17;;;2.80;;
71814;SDS011;59659;41.520;23.794;2023-07-30T02:52:51;3.87;;;2.50;;
71814;SDS011;59659;41.520;23.794;2023-07-30T02:54:06;3.80;;;2.77;;
71814;SDS011;59659;41.520;23.794;2023-07-30T02:55:18;4.97;;;3.27;;
71814;SDS011;59659;41.520;23.794;2023-07-30T02:56:30;5.07;;;3.20;;
71814;SDS011;59659;41.520;23.794;2023-07-30T02:57:41;7.27;;;3.20;;
71814;SDS011;59659;41.520;23.794;2023-07-30T02:58:53;5.97;;;3.27;;
71814;SDS011;59659;41.520;23.794;2023-07-30T03:00:04;4.17;;;3.37;;
71814;SDS011;59659;41.520;23.794;2023-07-30T03:01:16;4.57;;;3.73;;
71814;SDS011;59659;41.520;23.794;2023-07-30T03:02:28;5.50;;;3.43;;
71814;SDS011;59659;41.520;23.794;2023-07-30T03:03:40;5.13;;;3.60;;
71814;SDS011;59659;41.520;23.794;2023-07-30T03:04:51;6.80;;;2.87;;
71814;SDS011;59659;41.520;23.794;2023-07-30T03:06:07;5.40;;;2.60;;
71814;SDS011;59659;41.520;23.794;2023-07-30T03:07:18;7.33;;;3.03;;
71814;SDS011;59659;41.520;23.794;2023-07-30T03:08:31;4.13;;;2.87;;
71814;SDS011;59659;41.520;23.794;2023-07-30T03:09:42;4.30;;;2.77;;
71814;SDS011;59659;41.520;23.794;2023-07-30T03:10:54;6.07;;;4.07;;
71814;SDS011;59659;41.520;23.794;2023-07-30T03:12:08;6.53;;;2.93;;
71814;SDS011;59659;41.520;23.794;2023-07-30T03:13:19;5.83;;;2.93;;
71814;SDS011;59659;41.520;23.794;2023-07-30T03:14:33;4.50;;;2.80;;
71814;SDS011;59659;41.520;23.794;2023-07-30T03:15:44;3.53;;;2.63;;
71814;SDS011;59659;41.520;23.794;2023-07-30T03:16:56;5.87;;;3.70;;
71814;SDS011;59659;41.520;23.794;2023-07-30T03:18:07;7.67;;;2.97;;
71814;SDS011;59659;41.520;23.794;2023-07-30T03:19:19;6.40;;;3.27;;
71814;SDS011;59659;41.520;23.794;2023-07-30T03:20:30;8.47;;;3.50;;
71814;SDS011;59659;41.520;23.794;2023-07-30T03:21:42;5.93;;;3.10;;
71814;SDS011;59659;41.520;23.794;2023-07-30T03:22:53;4.77;;;3.10;;
71814;SDS011;59659;41.520;23.794;2023-07-30T03:24:05;4.97;;;3.00;;
71814;SDS011;59659;41.520;23.794;2023-07-30T03:25:16;5.03;;;3.73;;
71814;SDS011;59659;41.520;23.794;2023-07-30T03:26:28;9.30;;;3.27;;
71814;SDS011;59659;41.520;23.794;2023-07-30T03:27:39;4.40;;;3.20;;
71814;SDS011;59659;41.520;23.794;2023-07-30T03:28:51;6.20;;;3.43;;
71814;SDS011;59659;41.520;23.794;2023-07-30T03:30:03;7.27;;;2.80;;
71814;SDS011;59659;41.520;23.794;2023-07-30T03:31:15;6.27;;;3.23;;
71814;SDS011;59659;41.520;23.794;2023-07-30T03:32:27;9.30;;;3.17;;
71814;SDS011;59659;41.520;23.794;2023-07-30T03:33:39;4.63;;;2.70;;
71814;SDS011;59659;41.520;23.794;2023-07-30T03:34:54;4.97;;;2.70;;
71814;SDS011;59659;41.520;23.794;2023-07-30T03:36:06;5.53;;;2.67;;
71814;SDS011;59659;41.520;23.794;2023-07-30T03:37:17;4.20;;;2.90;;
71814;SDS011;59659;41.520;23.794;2023-07-30T03:38:29;4.37;;;2.60;;
71814;SDS011;59659;41.520;23.794;2023-07-30T03:39:40;5.47;;;3.40;;
71814;SDS011;59659;41.520;23.794;2023-07-30T03:40:52;7.97;;;2.90;;
71814;SDS011;59659;41.520;23.794;2023-07-30T03:42:03;4.27;;;2.80;;
71814;SDS011;59659;41.520;23.794;2023-07-30T03:43:15;3.90;;;2.80;;
71814;SDS011;59659;41.520;23.794;2023-07-30T03:44:27;5.77;;;2.53;;
71814;SDS011;59659;41.520;23.794;2023-07-30T03:45:38;3.70;;;2.37;;
71814;SDS011;59659;41.520;23.794;2023-07-30T03:46:50;4.80;;;3.13;;
71814;SDS011;59659;41.520;23.794;2023-07-30T03:48:01;6.80;;;2.60;;
71814;SDS011;59659;41.520;23.794;2023-07-30T03:49:13;3.40;;;2.80;;
71814;SDS011;59659;41.520;23.794;2023-07-30T03:50:24;5.90;;;2.73;;
71814;SDS011;59659;41.520;23.794;2023-07-30T03:51:36;4.13;;;2.77;;
71814;SDS011;59659;41.520;23.794;2023-07-30T03:52:50;7.50;;;2.67;;
71814;SDS011;59659;41.520;23.794;2023-07-30T03:54:01;8.33;;;2.63;;
71814;SDS011;59659;41.520;23.794;2023-07-30T03:55:13;4.60;;;2.57;;
71814;SDS011;59659;41.520;23.794;2023-07-30T03:56:25;4.10;;;2.53;;
71814;SDS011;59659;41.520;23.794;2023-07-30T03:57:36;10.33;;;2.87;;
71814;SDS011;59659;41.520;23.794;2023-07-30T03:58:48;5.77;;;2.87;;
71814;SDS011;59659;41.520;23.794;2023-07-30T03:59:59;4.83;;;3.03;;
71814;SDS011;59659;41.520;23.794;2023-07-30T04:01:11;4.10;;;2.70;;
71814;SDS011;59659;41.520;23.794;2023-07-30T04:02:23;3.77;;;2.73;;
71814;SDS011;59659;41.520;23.794;2023-07-30T04:03:34;4.93;;;2.87;;
71814;SDS011;59659;41.520;23.794;2023-07-30T04:04:46;4.13;;;2.43;;
71814;SDS011;59659;41.520;23.794;2023-07-30T04:06:01;5.57;;;2.90;;
71814;SDS011;59659;41.520;23.794;2023-07-30T04:07:12;6.73;;;2.70;;
71814;SDS011;59659;41.520;23.794;2023-07-30T04:08:24;5.37;;;2.87;;
71814;SDS011;59659;41.520;23.794;2023-07-30T04:09:35;4.93;;;2.90;;
71814;SDS011;59659;41.520;23.794;2023-07-30T04:10:47;4.53;;;2.83;;
71814;SDS011;59659;41.520;23.794;2023-07-30T04:11:59;3.33;;;2.50;;
71814;SDS011;59659;41.520;23.794;2023-07-30T04:13:10;4.43;;;2.60;;
71814;SDS011;59659;41.520;23.794;2023-07-30T04:14:22;9.87;;;3.50;;
71814;SDS011;59659;41.520;23.794;2023-07-30T04:15:33;4.13;;;2.60;;
71814;SDS011;59659;41.520;23.794;2023-07-30T04:16:45;5.33;;;2.63;;
71814;SDS011;59659;41.520;23.794;2023-07-30T04:17:58;5.23;;;2.83;;
71814;SDS011;59659;41.520;23.794;2023-07-30T04:19:10;6.67;;;3.30;;
71814;SDS011;59659;41.520;23.794;2023-07-30T04:20:21;5.17;;;3.03;;
71814;SDS011;59659;41.520;23.794;2023-07-30T04:21:33;9.67;;;2.50;;
71814;SDS011;59659;41.520;23.794;2023-07-30T04:22:45;5.97;;;2.77;;
71814;SDS011;59659;41.520;23.794;2023-07-30T04:23:56;5.57;;;2.97;;
71814;SDS011;59659;41.520;23.794;2023-07-30T04:25:08;4.80;;;3.03;;
71814;SDS011;59659;41.520;23.794;2023-07-30T04:26:20;5.33;;;2.80;;
71814;SDS011;59659;41.520;23.794;2023-07-30T04:27:31;4.90;;;2.90;;
71814;SDS011;59659;41.520;23.794;2023-07-30T04:28:45;5.40;;;2.83;;
71814;SDS011;59659;41.520;23.794;2023-07-30T04:29:56;5.07;;;3.00;;
71814;SDS011;59659;41.520;23.794;2023-07-30T04:31:08;4.37;;;2.93;;
71814;SDS011;59659;41.520;23.794;2023-07-30T04:32:19;4.70;;;2.87;;
71814;SDS011;59659;41.520;23.794;2023-07-30T04:33:31;5.30;;;3.40;;
71814;SDS011;59659;41.520;23.794;2023-07-30T04:34:42;5.03;;;2.97;;
71814;SDS011;59659;41.520;23.794;2023-07-30T04:35:54;5.10;;;3.03;;
71814;SDS011;59659;41.520;23.794;2023-07-30T04:37:06;4.80;;;3.27;;
71814;SDS011;59659;41.520;23.794;2023-07-30T04:38:17;4.23;;;2.63;;
71814;SDS011;59659;41.520;23.794;2023-07-30T04:39:29;6.13;;;2.97;;
71814;SDS011;59659;41.520;23.794;2023-07-30T04:40:41;4.67;;;3.07;;
71814;SDS011;59659;41.520;23.794;2023-07-30T04:41:53;3.93;;;3.10;;
71814;SDS011;59659;41.520;23.794;2023-07-30T04:43:04;6.43;;;3.20;;
71814;SDS011;59659;41.520;23.794;2023-07-30T04:44:16;4.90;;;3.40;;
71814;SDS011;59659;41.520;23.794;2023-07-30T04:45:27;5.73;;;3.23;;
71814;SDS011;59659;41.520;23.794;2023-07-30T04:46:39;6.90;;;2.50;;
71814;SDS011;59659;41.520;23.794;2023-07-30T04:47:50;4.67;;;2.50;;
71814;SDS011;59659;41.520;23.794;2023-07-30T04:49:02;5.30;;;2.93;;
71814;SDS011;59659;41.520;23.794;2023-07-30T04:50:14;6.23;;;3.53;;
71814;SDS011;59659;41.520;23.794;2023-07-30T04:51:26;8.57;;;3.23;;
71814;SDS011;59659;41.520;23.794;2023-07-30T04:52:38;4.13;;;2.93;;
71814;SDS011;59659;41.520;23.794;2023-07-30T04:53:49;4.67;;;3.17;;
71814;SDS011;59659;41.520;23.794;2023-07-30T04:55:01;8.53;;;3.00;;
71814;SDS011;59659;41.520;23.794;2023-07-30T04:56:12;4.70;;;3.20;;
71814;SDS011;59659;41.520;23.794;2023-07-30T04:57:24;5.33;;;2.93;;
71814;SDS011;59659;41.520;23.794;2023-07-30T04:58:35;4.27;;;2.63;;
71814;SDS011;59659;41.520;23.794;2023-07-30T04:59:47;4.33;;;2.77;;
71814;SDS011;59659;41.520;23.794;2023-07-30T05:00:58;3.87;;;2.60;;
71814;SDS011;59659;41.520;23.794;2023-07-30T05:02:10;5.43;;;3.73;;
71814;SDS011;59659;41.520;23.794;2023-07-30T05:03:21;26.73;;;11.40;;
71814;SDS011;59659;41.520;23.794;2023-07-30T05:04:33;9.00;;;4.87;;
71814;SDS011;59659;41.520;23.794;2023-07-30T05:05:44;18.43;;;5.87;;
71814;SDS011;59659;41.520;23.794;2023-07-30T05:06:56;20.73;;;7.60;;
71814;SDS011;59659;41.520;23.794;2023-07-30T05:08:08;22.13;;;9.40;;
71814;SDS011;59659;41.520;23.794;2023-07-30T05:09:19;20.27;;;8.50;;
71814;SDS011;59659;41.520;23.794;2023-07-30T05:10:30;16.67;;;5.53;;
71814;SDS011;59659;41.520;23.794;2023-07-30T05:11:42;7.57;;;4.63;;
71814;SDS011;59659;41.520;23.794;2023-07-30T05:12:54;4.53;;;3.20;;
71814;SDS011;59659;41.520;23.794;2023-07-30T05:14:05;6.20;;;3.50;;
71814;SDS011;59659;41.520;23.794;2023-07-30T05:15:16;6.80;;;3.60;;
71814;SDS011;59659;41.520;23.794;2023-07-30T05:16:28;8.20;;;3.67;;
71814;SDS011;59659;41.520;23.794;2023-07-30T05:17:40;4.87;;;3.50;;
71814;SDS011;59659;41.520;23.794;2023-07-30T05:18:54;5.63;;;3.10;;
71814;SDS011;59659;41.520;23.794;2023-07-30T05:20:06;5.53;;;3.20;;
71814;SDS011;59659;41.520;23.794;2023-07-30T05:21:18;5.00;;;3.30;;
71814;SDS011;59659;41.520;23.794;2023-07-30T05:22:29;6.07;;;3.80;;
71814;SDS011;59659;41.520;23.794;2023-07-30T05:23:41;8.43;;;3.27;;
71814;SDS011;59659;41.520;23.794;2023-07-30T05:24:52;5.90;;;3.50;;
71814;SDS011;59659;41.520;23.794;2023-07-30T05:26:04;4.27;;;2.47;;
71814;SDS011;59659;41.520;23.794;2023-07-30T05:27:15;5.00;;;3.03;;
71814;SDS011;59659;41.520;23.794;2023-07-30T05:28:27;4.23;;;3.07;;
71814;SDS011;59659;41.520;23.794;2023-07-30T05:29:38;5.80;;;3.37;;
71814;SDS011;59659;41.520;23.794;2023-07-30T05:30:50;6.63;;;3.37;;
71814;SDS011;59659;41.520;23.794;2023-07-30T05:32:02;5.37;;;3.23;;
71814;SDS011;59659;41.520;23.794;2023-07-30T05:33:13;4.47;;;3.30;;
71814;SDS011;59659;41.520;23.794;2023-07-30T05:34:25;4.00;;;2.90;;
71814;SDS011;59659;41.520;23.794;2023-07-30T05:35:36;4.97;;;3.13;;
71814;SDS011;59659;41.520;23.794;2023-07-30T05:36:48;4.40;;;2.97;;
71814;SDS011;59659;41.520;23.794;2023-07-30T05:37:59;6.03;;;3.10;;
71814;SDS011;59659;41.520;23.794;2023-07-30T05:39:11;5.10;;;3.40;;
71814;SDS011;59659;41.520;23.794;2023-07-30T05:40:22;4.03;;;3.07;;
71814;SDS011;59659;41.520;23.794;2023-07-30T05:41:34;5.30;;;3.50;;
71814;SDS011;59659;41.520;23.794;2023-07-30T05:42:46;5.40;;;3.00;;
71814;SDS011;59659;41.520;23.794;2023-07-30T05:43:58;4.30;;;3.00;;
71814;SDS011;59659;41.520;23.794;2023-07-30T05:45:09;4.67;;;3.17;;
71814;SDS011;59659;41.520;23.794;2023-07-30T05:46:21;5.83;;;2.93;;
71814;SDS011;59659;41.520;23.794;2023-07-30T05:47:32;4.53;;;2.73;;
71814;SDS011;59659;41.520;23.794;2023-07-30T05:48:44;5.23;;;3.13;;
71814;SDS011;59659;41.520;23.794;2023-07-30T05:49:55;5.47;;;3.13;;
71814;SDS011;59659;41.520;23.794;2023-07-30T05:51:07;6.63;;;2.83;;
71814;SDS011;59659;41.520;23.794;2023-07-30T05:52:19;3.87;;;2.60;;
71814;SDS011;59659;41.520;23.794;2023-07-30T05:53:30;4.73;;;3.43;;
71814;SDS011;59659;41.520;23.794;2023-07-30T05:54:42;3.67;;;2.73;;
71814;SDS011;59659;41.520;23.794;2023-07-30T05:55:53;4.10;;;2.80;;
71814;SDS011;59659;41.520;23.794;2023-07-30T05:57:05;4.13;;;3.00;;
71814;SDS011;59659;41.520;23.794;2023-07-30T05:58:16;4.50;;;2.83;;
71814;SDS011;59659;41.520;23.794;2023-07-30T05:59:28;5.37;;;3.27;;
71814;SDS011;59659;41.520;23.794;2023-07-30T06:00:39;5.03;;;3.03;;
71814;SDS011;59659;41.520;23.794;2023-07-30T06:01:51;3.90;;;3.00;;
71814;SDS011;59659;41.520;23.794;2023-07-30T06:03:02;5.07;;;2.87;;
71814;SDS011;59659;41.520;23.794;2023-07-30T06:04:14;7.90;;;3.20;;
71814;SDS011;59659;41.520;23.794;2023-07-30T06:05:26;4.73;;;3.10;;
71814;SDS011;59659;41.520;23.794;2023-07-30T06:06:37;4.30;;;2.90;;
71814;SDS011;59659;41.520;23.794;2023-07-30T06:07:49;5.03;;;2.73;;
71814;SDS011;59659;41.520;23.794;2023-07-30T06:09:00;4.30;;;3.10;;
71814;SDS011;59659;41.520;23.794;2023-07-30T06:10:12;4.30;;;2.90;;
71814;SDS011;59659;41.520;23.794;2023-07-30T06:11:24;4.50;;;2.87;;
71814;SDS011;59659;41.520;23.794;2023-07-30T06:12:36;3.60;;;2.97;;
71814;SDS011;59659;41.520;23.794;2023-07-30T06:13:47;4.80;;;3.20;;
71814;SDS011;59659;41.520;23.794;2023-07-30T06:14:59;6.63;;;2.90;;
71814;SDS011;59659;41.520;23.794;2023-07-30T06:16:11;4.57;;;3.07;;
71814;SDS011;59659;41.520;23.794;2023-07-30T06:17:22;4.63;;;3.37;;
71814;SDS011;59659;41.520;23.794;2023-07-30T06:18:34;4.77;;;3.30;;
71814;SDS011;59659;41.520;23.794;2023-07-30T06:19:45;5.30;;;3.17;;
71814;SDS011;59659;41.520;23.794;2023-07-30T06:20:57;5.40;;;3.37;;
71814;SDS011;59659;41.520;23.794;2023-07-30T06:22:08;5.87;;;2.70;;
71814;SDS011;59659;41.520;23.794;2023-07-30T06:23:20;4.53;;;2.93;;
71814;SDS011;59659;41.520;23.794;2023-07-30T06:24:31;6.37;;;3.00;;
71814;SDS011;59659;41.520;23.794;2023-07-30T06:25:46;4.70;;;2.40;;
71814;SDS011;59659;41.520;23.794;2023-07-30T06:26:57;4.83;;;2.57;;
71814;SDS011;59659;41.520;23.794;2023-07-30T06:28:09;4.40;;;2.73;;
71814;SDS011;59659;41.520;23.794;2023-07-30T06:29:20;3.53;;;2.60;;
71814;SDS011;59659;41.520;23.794;2023-07-30T06:30:32;4.07;;;2.80;;
71814;SDS011;59659;41.520;23.794;2023-07-30T06:31:43;4.00;;;2.80;;
71814;SDS011;59659;41.520;23.794;2023-07-30T06:32:55;5.03;;;3.37;;
71814;SDS011;59659;41.520;23.794;2023-07-30T06:34:07;5.40;;;2.80;;
71814;SDS011;59659;41.520;23.794;2023-07-30T06:35:18;5.63;;;3.10;;
71814;SDS011;59659;41.520;23.794;2023-07-30T06:36:30;5.10;;;3.00;;
71814;SDS011;59659;41.520;23.794;2023-07-30T06:37:41;6.70;;;3.63;;
71814;SDS011;59659;41.520;23.794;2023-07-30T06:38:53;5.40;;;4.20;;
71814;SDS011;59659;41.520;23.794;2023-07-30T06:40:05;6.20;;;3.53;;
71814;SDS011;59659;41.520;23.794;2023-07-30T06:41:17;4.73;;;3.70;;
71814;SDS011;59659;41.520;23.794;2023-07-30T06:42:29;5.13;;;2.60;;
71814;SDS011;59659;41.520;23.794;2023-07-30T06:43:40;4.30;;;3.10;;
71814;SDS011;59659;41.520;23.794;2023-07-30T06:44:52;4.47;;;2.93;;
71814;SDS011;59659;41.520;23.794;2023-07-30T06:46:03;7.07;;;3.20;;
71814;SDS011;59659;41.520;23.794;2023-07-30T06:47:15;3.60;;;2.60;;
71814;SDS011;59659;41.520;23.794;2023-07-30T06:48:26;4.53;;;3.03;;
71814;SDS011;59659;41.520;23.794;2023-07-30T06:49:38;5.23;;;3.10;;
71814;SDS011;59659;41.520;23.794;2023-07-30T06:50:49;7.03;;;3.40;;
71814;SDS011;59659;41.520;23.794;2023-07-30T06:52:01;3.90;;;2.77;;
71814;SDS011;59659;41.520;23.794;2023-07-30T06:53:12;3.60;;;2.87;;
71814;SDS011;59659;41.520;23.794;2023-07-30T06:54:24;4.63;;;3.23;;
71814;SDS011;59659;41.520;23.794;2023-07-30T06:55:35;4.50;;;3.37;;
71814;SDS011;59659;41.520;23.794;2023-07-30T06:56:47;6.13;;;2.73;;
71814;SDS011;59659;41.520;23.794;2023-07-30T06:57:58;9.07;;;3.90;;
71814;SDS011;59659;41.520;23.794;2023-07-30T06:59:10;4.87;;;3.07;;
71814;SDS011;59659;41.520;23.794;2023-07-30T07:00:21;4.57;;;3.27;;
71814;SDS011;59659;41.520;23.794;2023-07-30T07:01:34;3.87;;;2.87;;
71814;SDS011;59659;41.520;23.794;2023-07-30T07:02:45;3.13;;;2.40;;
71814;SDS011;59659;41.520;23.794;2023-07-30T07:03:57;4.47;;;2.83;;
71814;SDS011;59659;41.520;23.794;2023-07-30T07:05:09;6.67;;;3.00;;